الصفحة الرئيسية
METAR-TAF:

METAR-TAF

مطار :

مطار جورج بوش الدولي

هيوستن, تكساس, الولايات المتحدة

دائرة عرض: 29-59-33N, خط طول: 095-21-50W, ارتفاع: 29 متر

مراقبة الطقس الحالي

تاريخ ووقت الإصدار 1ساعة و 3 دقيقة قبل الساعة 03:53UTC
ريح 6 عقدة من الجنوب
درجة الحرارة 29°درجة مئوية
الرطوبة 74%
ضغط 1018 hPa
الرؤية: 16.1 كم
سماء صافية

METAR: KIAH 180353Z 18006KT 10SM CLR 29/24 A3006 RMK AO2 SLP179 T02890244

زمن: 23:56 (04:56 UTC)

توقعات

تاريخ ووقت الإصدار 1ساعة و 53 دقيقة قبل الساعة 03:03UTC
التوقعات صالحة من18 الساعة 03 UTC إلى 19 الساعة 06 UTC
ريح 6 عقدة من الجنوب
الرؤية: 10 كم
غيوم قليلة على ارتفاع 7000 قدم
من 18 الساعة 1500 UTC
ريح 6 عقدة من الجنوب الغربي
الرؤية: 10 كم
غيوم قليلة على ارتفاع 2500 قدم
غيوم متفرقة على ارتفاع 25000 قدم

TAF: KIAH 180303Z 1803/1906 18006KT P6SM FEW070 FM181500 22006KT P6SM FEW025 SCT250

أرصاد الطقس والتوقعات من أكثر من 4000 مطار (تقارير الطقس للمطار METAR والتنبؤ بالطقس بالمطارTAF).

المحطات المتاحة هي النقط الصفراء والحمراء على الخريطة.

حرك المؤشر فوق النقطة لمعرفة اسم المحطة.

ثم انقر لمعرفة أرصاد وتوقعات الطقس.

لتغيير الخارطة: اضغط على الأزرار الخضراء مع رمز الصليب الأسود للتكبير. على الزر الأخضر مع شرطة للتصغير، أو على الأسهم الخضراء للخرائط المجاورة.


METAR-TAF: